GRL23W BIKF-BGGH
Flight info
| Callsign | GRL23W |
|---|---|
| Flight time | 2h 40m |
| Altitude | 24000 |
| Route | SORIR3A SORIR DCT SOPEN DCT 6504N03237W 6512N03825W 6507N04417W DCT INBAN DCT GETDA |
| Aircraft | DH8D/M-SDE2E3FGRY/H |
Departure
| Time | 2026-05-06 14:06 |
|---|---|
| Airport | Keflavik International Airport (BIKF) |
Arrival
| Time | 2026-05-06 16:47 |
|---|---|
| Airport | Nuuk International Airport (BGGH) |
| Time | Latitude | Longitude | Altitude | Speed | Heading |
|---|---|---|---|---|---|
| 2026-05-06 13:43 | 63.99400 | -22.61840 | 142 ft | 0 kts | 180° |
| 2026-05-06 13:58 | 63.99405 | -22.61840 | 147 ft | 2 kts | 180° |
| 2026-05-06 13:58 | 63.99420 | -22.61840 | 147 ft | 2 kts | 180° |
| 2026-05-06 13:58 | 63.99435 | -22.61840 | 147 ft | 2 kts | 180° |
| 2026-05-06 13:58 | 63.99450 | -22.61840 | 147 ft | 2 kts | 179° |
| 2026-05-06 13:59 | 63.99463 | -22.61846 | 147 ft | 2 kts | 141° |
| 2026-05-06 13:59 | 63.99470 | -22.61873 | 147 ft | 1 kts | 92° |
| 2026-05-06 13:59 | 63.99470 | -22.61882 | 147 ft | 0 kts | 87° |
| 2026-05-06 14:01 | 63.99470 | -22.61863 | 147 ft | 3 kts | 86° |
| 2026-05-06 14:01 | 63.99470 | -22.61774 | 147 ft | 9 kts | 90° |
| 2026-05-06 14:02 | 63.99470 | -22.61564 | 147 ft | 13 kts | 87° |
| 2026-05-06 14:02 | 63.99442 | -22.61433 | 147 ft | 6 kts | 174° |
| 2026-05-06 14:02 | 63.99353 | -22.61440 | 147 ft | 18 kts | 175° |
| 2026-05-06 14:02 | 63.99225 | -22.61439 | 147 ft | 15 kts | 177° |
| 2026-05-06 14:03 | 63.99173 | -22.61298 | 148 ft | 13 kts | 90° |
| 2026-05-06 14:03 | 63.99172 | -22.61086 | 150 ft | 15 kts | 89° |
| 2026-05-06 14:03 | 63.99120 | -22.60946 | 150 ft | 18 kts | 179° |
| 2026-05-06 14:03 | 63.98937 | -22.60947 | 152 ft | 32 kts | 180° |
| 2026-05-06 14:04 | 63.98695 | -22.60949 | 155 ft | 36 kts | 181° |
| 2026-05-06 14:04 | 63.98430 | -22.60948 | 155 ft | 39 kts | 179° |
| 2026-05-06 14:04 | 63.98154 | -22.60941 | 158 ft | 38 kts | 179° |
| 2026-05-06 14:04 | 63.97879 | -22.60945 | 156 ft | 41 kts | 178° |
| 2026-05-06 14:05 | 63.97607 | -22.60944 | 154 ft | 24 kts | 180° |
| 2026-05-06 14:05 | 63.97499 | -22.60949 | 152 ft | 11 kts | 178° |
| 2026-05-06 14:05 | 63.97448 | -22.60823 | 153 ft | 13 kts | 104° |
| 2026-05-06 14:05 | 63.97421 | -22.60608 | 155 ft | 8 kts | 106° |
| 2026-05-06 14:06 | 63.97471 | -22.60547 | 157 ft | 25 kts | 360° |
| 2026-05-06 14:06 | 63.97961 | -22.60551 | 166 ft | 109 kts | 0° |
| 2026-05-06 14:06 | 63.98864 | -22.60548 | 349 ft | 143 kts | 1° |
| 2026-05-06 14:06 | 63.99894 | -22.60531 | 977 ft | 154 kts | 359° |
| 2026-05-06 14:07 | 64.00993 | -22.60538 | 1520 ft | 172 kts | 1° |
| 2026-05-06 14:07 | 64.02232 | -22.60499 | 2118 ft | 182 kts | 3° |
| 2026-05-06 14:07 | 64.03525 | -22.60431 | 2632 ft | 191 kts | 0° |
| 2026-05-06 14:07 | 64.04848 | -22.60491 | 3205 ft | 197 kts | 357° |
| 2026-05-06 14:08 | 64.06067 | -22.61885 | 3732 ft | 211 kts | 313° |
| 2026-05-06 14:08 | 64.06719 | -22.64927 | 4374 ft | 218 kts | 297° |
| 2026-05-06 14:08 | 64.07233 | -22.68215 | 4954 ft | 224 kts | 292° |
| 2026-05-06 14:08 | 64.07703 | -22.71638 | 5547 ft | 229 kts | 291° |
| 2026-05-06 14:09 | 64.08161 | -22.75112 | 6160 ft | 231 kts | 291° |
| 2026-05-06 14:09 | 64.08621 | -22.78638 | 6763 ft | 233 kts | 291° |
| 2026-05-06 14:09 | 64.09074 | -22.82147 | 7344 ft | 235 kts | 290° |
| 2026-05-06 14:09 | 64.09530 | -22.85740 | 7954 ft | 237 kts | 290° |
| 2026-05-06 14:10 | 64.09988 | -22.89342 | 8565 ft | 239 kts | 290° |
| 2026-05-06 14:10 | 64.10448 | -22.92986 | 9173 ft | 242 kts | 290° |
| 2026-05-06 14:10 | 64.10905 | -22.96646 | 9777 ft | 244 kts | 290° |
| 2026-05-06 14:10 | 64.11372 | -23.00371 | 10377 ft | 246 kts | 289° |
| 2026-05-06 14:11 | 64.11842 | -23.04154 | 10971 ft | 249 kts | 289° |
| 2026-05-06 14:11 | 64.12310 | -23.07935 | 11555 ft | 251 kts | 289° |
| 2026-05-06 14:11 | 64.12791 | -23.11809 | 12143 ft | 254 kts | 289° |
| 2026-05-06 14:11 | 64.13268 | -23.15677 | 12720 ft | 256 kts | 289° |
| 2026-05-06 14:12 | 64.13749 | -23.19588 | 13286 ft | 259 kts | 290° |
| 2026-05-06 14:12 | 64.14236 | -23.23572 | 13858 ft | 263 kts | 290° |
| 2026-05-06 14:12 | 64.14725 | -23.27581 | 14427 ft | 266 kts | 290° |
| 2026-05-06 14:12 | 64.15220 | -23.31650 | 14994 ft | 268 kts | 290° |
| 2026-05-06 14:13 | 64.15723 | -23.35797 | 15570 ft | 270 kts | 290° |
| 2026-05-06 14:13 | 64.16224 | -23.39929 | 16126 ft | 272 kts | 290° |
| 2026-05-06 14:13 | 64.16726 | -23.44084 | 16672 ft | 275 kts | 290° |
| 2026-05-06 14:13 | 64.17232 | -23.48280 | 17198 ft | 277 kts | 290° |
| 2026-05-06 14:14 | 64.17741 | -23.52523 | 17703 ft | 279 kts | 290° |
| 2026-05-06 14:14 | 64.18317 | -23.56809 | 18194 ft | 279 kts | 297° |
| 2026-05-06 14:14 | 64.19096 | -23.60843 | 18666 ft | 280 kts | 301° |
| 2026-05-06 14:14 | 64.19923 | -23.64911 | 19130 ft | 282 kts | 301° |
| 2026-05-06 14:15 | 64.20750 | -23.68993 | 19557 ft | 285 kts | 300° |
| 2026-05-06 14:15 | 64.21580 | -23.73101 | 19989 ft | 287 kts | 300° |
| 2026-05-06 14:15 | 64.22407 | -23.77218 | 20404 ft | 289 kts | 300° |
| 2026-05-06 14:15 | 64.23249 | -23.81422 | 20772 ft | 291 kts | 300° |
| 2026-05-06 14:16 | 64.24095 | -23.85660 | 21123 ft | 293 kts | 300° |
| 2026-05-06 14:16 | 64.24934 | -23.89873 | 21457 ft | 294 kts | 300° |
| 2026-05-06 14:16 | 64.25781 | -23.94143 | 21778 ft | 296 kts | 300° |
| 2026-05-06 14:16 | 64.26644 | -23.98503 | 22088 ft | 298 kts | 300° |
| 2026-05-06 14:17 | 64.27490 | -24.02782 | 22375 ft | 300 kts | 300° |
| 2026-05-06 14:17 | 64.28354 | -24.07170 | 22657 ft | 301 kts | 300° |
| 2026-05-06 14:17 | 64.29222 | -24.11585 | 22931 ft | 303 kts | 300° |
| 2026-05-06 14:17 | 64.30082 | -24.15970 | 23189 ft | 305 kts | 300° |
| 2026-05-06 14:18 | 64.30954 | -24.20422 | 23443 ft | 306 kts | 300° |
| 2026-05-06 14:18 | 64.31817 | -24.24843 | 23685 ft | 307 kts | 300° |
| 2026-05-06 14:18 | 64.32701 | -24.29380 | 23924 ft | 308 kts | 299° |
| 2026-05-06 14:18 | 64.33572 | -24.33860 | 24149 ft | 310 kts | 299° |
| 2026-05-06 14:19 | 64.34456 | -24.38410 | 24257 ft | 316 kts | 299° |
| 2026-05-06 14:19 | 64.35362 | -24.43076 | 24292 ft | 323 kts | 299° |
| 2026-05-06 14:19 | 64.36279 | -24.47817 | 24301 ft | 331 kts | 299° |
| 2026-05-06 14:19 | 64.37221 | -24.52703 | 24290 ft | 337 kts | 299° |
| 2026-05-06 14:20 | 64.38181 | -24.57695 | 24291 ft | 342 kts | 299° |
| 2026-05-06 14:20 | 64.39150 | -24.62750 | 24297 ft | 345 kts | 299° |
| 2026-05-06 14:20 | 64.40109 | -24.67789 | 24303 ft | 348 kts | 297° |
| 2026-05-06 14:20 | 64.40957 | -24.73053 | 24307 ft | 350 kts | 292° |
| 2026-05-06 14:21 | 64.41705 | -24.78379 | 24305 ft | 351 kts | 292° |
| 2026-05-06 14:21 | 64.42458 | -24.83784 | 24304 ft | 350 kts | 292° |
| 2026-05-06 14:21 | 64.43192 | -24.89059 | 24306 ft | 349 kts | 292° |
| 2026-05-06 14:21 | 64.43935 | -24.94413 | 24308 ft | 347 kts | 292° |
| 2026-05-06 14:22 | 64.44669 | -24.99704 | 24311 ft | 347 kts | 292° |
| 2026-05-06 14:22 | 64.45399 | -25.04969 | 24312 ft | 346 kts | 292° |
| 2026-05-06 14:22 | 64.46129 | -25.10249 | 24314 ft | 345 kts | 292° |
| 2026-05-06 14:22 | 64.46861 | -25.15555 | 24315 ft | 345 kts | 292° |
| 2026-05-06 14:23 | 64.47581 | -25.20791 | 24316 ft | 345 kts | 292° |
| 2026-05-06 14:23 | 64.48310 | -25.26098 | 24317 ft | 344 kts | 292° |
| 2026-05-06 14:23 | 64.49023 | -25.31308 | 24318 ft | 344 kts | 292° |
| 2026-05-06 14:23 | 64.49747 | -25.36608 | 24319 ft | 344 kts | 292° |
| 2026-05-06 14:24 | 64.50467 | -25.41901 | 24321 ft | 344 kts | 292° |
| 2026-05-06 14:24 | 64.51175 | -25.47122 | 24322 ft | 343 kts | 292° |
| 2026-05-06 14:24 | 64.51892 | -25.52423 | 24323 ft | 343 kts | 292° |
| 2026-05-06 14:24 | 64.52601 | -25.57679 | 24324 ft | 343 kts | 292° |
| 2026-05-06 14:25 | 64.53305 | -25.62923 | 24325 ft | 343 kts | 292° |
| 2026-05-06 14:25 | 64.54015 | -25.68215 | 24324 ft | 343 kts | 291° |
| 2026-05-06 14:25 | 64.54717 | -25.73481 | 24326 ft | 343 kts | 291° |
| 2026-05-06 14:25 | 64.55421 | -25.78762 | 24327 ft | 343 kts | 291° |
| 2026-05-06 14:26 | 64.56121 | -25.84043 | 24328 ft | 343 kts | 291° |
| 2026-05-06 14:26 | 64.56817 | -25.89299 | 24329 ft | 343 kts | 291° |
| 2026-05-06 14:26 | 64.57517 | -25.94612 | 24330 ft | 343 kts | 291° |
| 2026-05-06 14:26 | 64.58215 | -25.99924 | 24330 ft | 344 kts | 291° |
| 2026-05-06 14:27 | 64.58903 | -26.05179 | 24331 ft | 344 kts | 291° |
| 2026-05-06 14:27 | 64.59598 | -26.10502 | 24332 ft | 344 kts | 291° |
| 2026-05-06 14:27 | 64.60289 | -26.15804 | 24332 ft | 344 kts | 291° |
| 2026-05-06 14:27 | 64.60983 | -26.21153 | 24331 ft | 344 kts | 291° |
| 2026-05-06 14:28 | 64.61665 | -26.26434 | 24331 ft | 344 kts | 291° |
| 2026-05-06 14:28 | 64.62350 | -26.31748 | 24331 ft | 344 kts | 291° |
| 2026-05-06 14:28 | 64.63037 | -26.37096 | 24332 ft | 343 kts | 291° |
| 2026-05-06 14:28 | 64.63711 | -26.42367 | 24334 ft | 343 kts | 291° |
| 2026-05-06 14:29 | 64.64394 | -26.47716 | 24336 ft | 343 kts | 291° |
| 2026-05-06 14:29 | 64.65071 | -26.53035 | 24337 ft | 343 kts | 291° |
| 2026-05-06 14:29 | 64.65742 | -26.58326 | 24337 ft | 343 kts | 291° |
| 2026-05-06 14:29 | 64.66415 | -26.63659 | 24338 ft | 343 kts | 291° |
| 2026-05-06 14:30 | 64.67088 | -26.69001 | 24338 ft | 343 kts | 290° |
| 2026-05-06 14:30 | 64.67757 | -26.74335 | 24338 ft | 343 kts | 290° |
| 2026-05-06 14:30 | 64.68419 | -26.79627 | 24339 ft | 343 kts | 290° |
| 2026-05-06 14:30 | 64.69083 | -26.84949 | 24340 ft | 343 kts | 290° |
| 2026-05-06 14:31 | 64.69743 | -26.90271 | 24340 ft | 343 kts | 290° |
| 2026-05-06 14:31 | 64.70217 | -26.95729 | 24344 ft | 346 kts | 281° |
| 2026-05-06 14:31 | 64.70489 | -27.01325 | 24342 ft | 346 kts | 280° |
| 2026-05-06 14:31 | 64.70745 | -27.06885 | 24343 ft | 346 kts | 280° |
| 2026-05-06 14:32 | 64.71000 | -27.12466 | 24344 ft | 346 kts | 280° |
| 2026-05-06 14:32 | 64.71254 | -27.18032 | 24344 ft | 346 kts | 280° |
| 2026-05-06 14:32 | 64.71509 | -27.23612 | 24345 ft | 346 kts | 280° |
| 2026-05-06 14:32 | 64.71761 | -27.29161 | 24346 ft | 346 kts | 280° |
| 2026-05-06 14:33 | 64.72015 | -27.34779 | 24346 ft | 346 kts | 280° |
| 2026-05-06 14:33 | 64.72265 | -27.40322 | 24347 ft | 346 kts | 280° |
| 2026-05-06 14:33 | 64.72514 | -27.45895 | 24347 ft | 346 kts | 280° |
| 2026-05-06 14:33 | 64.72760 | -27.51429 | 24348 ft | 346 kts | 280° |
| 2026-05-06 14:34 | 64.73007 | -27.57030 | 24349 ft | 346 kts | 280° |
| 2026-05-06 14:34 | 64.73252 | -27.62626 | 24349 ft | 346 kts | 280° |
| 2026-05-06 14:34 | 64.73492 | -27.68164 | 24349 ft | 346 kts | 279° |
| 2026-05-06 14:34 | 64.73731 | -27.73718 | 24350 ft | 345 kts | 279° |
| 2026-05-06 14:35 | 64.73971 | -27.79342 | 24351 ft | 345 kts | 279° |
| 2026-05-06 14:35 | 64.74206 | -27.84882 | 24352 ft | 345 kts | 279° |
| 2026-05-06 14:35 | 64.74439 | -27.90473 | 24352 ft | 345 kts | 279° |
| 2026-05-06 14:35 | 64.74671 | -27.96053 | 24353 ft | 345 kts | 279° |
| 2026-05-06 14:36 | 64.74899 | -28.01589 | 24353 ft | 345 kts | 279° |
| 2026-05-06 14:36 | 64.75127 | -28.07163 | 24354 ft | 345 kts | 279° |
| 2026-05-06 14:36 | 64.75352 | -28.12759 | 24355 ft | 345 kts | 279° |
| 2026-05-06 14:36 | 64.75576 | -28.18343 | 24354 ft | 345 kts | 279° |
| 2026-05-06 14:37 | 64.75797 | -28.23910 | 24354 ft | 345 kts | 279° |
| 2026-05-06 14:37 | 64.76016 | -28.29497 | 24354 ft | 345 kts | 279° |
| 2026-05-06 14:37 | 64.76234 | -28.35102 | 24355 ft | 345 kts | 279° |
| 2026-05-06 14:37 | 64.76447 | -28.40637 | 24357 ft | 345 kts | 279° |
| 2026-05-06 14:38 | 64.76661 | -28.46247 | 24358 ft | 345 kts | 279° |
| 2026-05-06 14:38 | 64.76869 | -28.51771 | 24359 ft | 345 kts | 279° |
| 2026-05-06 14:38 | 64.77078 | -28.57368 | 24360 ft | 345 kts | 279° |
| 2026-05-06 14:38 | 64.77285 | -28.62951 | 24361 ft | 345 kts | 279° |
| 2026-05-06 14:39 | 64.77489 | -28.68529 | 24361 ft | 345 kts | 278° |
| 2026-05-06 14:39 | 64.77692 | -28.74136 | 24363 ft | 345 kts | 278° |
| 2026-05-06 14:39 | 64.77891 | -28.79713 | 24365 ft | 345 kts | 278° |
| 2026-05-06 14:39 | 64.78088 | -28.85268 | 24367 ft | 344 kts | 278° |
| 2026-05-06 14:40 | 64.78284 | -28.90853 | 24368 ft | 344 kts | 278° |
| 2026-05-06 14:40 | 64.78476 | -28.96368 | 24369 ft | 344 kts | 278° |
| 2026-05-06 14:40 | 64.78668 | -29.01980 | 24370 ft | 344 kts | 278° |
| 2026-05-06 14:40 | 64.78859 | -29.07586 | 24371 ft | 344 kts | 278° |
| 2026-05-06 14:41 | 64.79044 | -29.13092 | 24372 ft | 344 kts | 278° |
| 2026-05-06 14:41 | 64.79230 | -29.18700 | 24373 ft | 344 kts | 278° |
| 2026-05-06 14:41 | 64.79412 | -29.24284 | 24374 ft | 344 kts | 278° |
| 2026-05-06 14:41 | 64.79594 | -29.29873 | 24375 ft | 344 kts | 278° |
| 2026-05-06 14:42 | 64.79770 | -29.35392 | 24376 ft | 344 kts | 278° |
| 2026-05-06 14:42 | 64.79948 | -29.40993 | 24377 ft | 344 kts | 277° |
| 2026-05-06 14:42 | 64.80121 | -29.46530 | 24378 ft | 344 kts | 277° |
| 2026-05-06 14:42 | 64.80293 | -29.52091 | 24379 ft | 344 kts | 277° |
| 2026-05-06 14:43 | 64.80464 | -29.57721 | 24380 ft | 343 kts | 277° |
| 2026-05-06 14:43 | 64.80632 | -29.63292 | 24382 ft | 343 kts | 277° |
| 2026-05-06 14:43 | 64.80797 | -29.68813 | 24382 ft | 343 kts | 277° |
| 2026-05-06 14:43 | 64.80960 | -29.74373 | 24384 ft | 343 kts | 277° |
| 2026-05-06 14:44 | 64.81123 | -29.79989 | 24385 ft | 343 kts | 277° |
| 2026-05-06 14:44 | 64.81282 | -29.85541 | 24386 ft | 343 kts | 276° |
| 2026-05-06 14:44 | 64.81439 | -29.91130 | 24387 ft | 343 kts | 276° |
| 2026-05-06 14:45 | 64.81756 | -30.02203 | 24389 ft | 343 kts | 278° |
| 2026-05-06 14:45 | 64.82022 | -30.07745 | 24391 ft | 342 kts | 280° |
| 2026-05-06 14:45 | 64.82323 | -30.13300 | 24392 ft | 342 kts | 280° |
| 2026-05-06 14:45 | 64.82613 | -30.18766 | 24390 ft | 342 kts | 280° |
| 2026-05-06 14:46 | 64.82903 | -30.24290 | 24390 ft | 341 kts | 280° |
| 2026-05-06 14:46 | 64.83186 | -30.29813 | 24391 ft | 341 kts | 280° |
| 2026-05-06 14:46 | 64.83468 | -30.35356 | 24393 ft | 341 kts | 280° |
| 2026-05-06 14:46 | 64.83742 | -30.40819 | 24396 ft | 341 kts | 280° |
| 2026-05-06 14:47 | 64.84016 | -30.46346 | 24398 ft | 341 kts | 280° |
| 2026-05-06 14:47 | 64.84287 | -30.51878 | 24400 ft | 341 kts | 279° |
| 2026-05-06 14:47 | 64.84556 | -30.57412 | 24401 ft | 341 kts | 279° |
| 2026-05-06 14:47 | 64.84819 | -30.62894 | 24402 ft | 341 kts | 279° |
| 2026-05-06 14:48 | 64.85084 | -30.68432 | 24403 ft | 341 kts | 278° |
| 2026-05-06 14:48 | 64.85342 | -30.73902 | 24405 ft | 341 kts | 278° |
| 2026-05-06 14:48 | 64.85602 | -30.79450 | 24406 ft | 341 kts | 278° |
| 2026-05-06 14:48 | 64.85856 | -30.84924 | 24407 ft | 341 kts | 278° |
| 2026-05-06 14:49 | 64.86111 | -30.90475 | 24409 ft | 340 kts | 278° |
| 2026-05-06 14:49 | 64.86362 | -30.95964 | 24410 ft | 340 kts | 278° |
| 2026-05-06 14:49 | 64.86613 | -31.01531 | 24412 ft | 340 kts | 278° |
| 2026-05-06 14:49 | 64.86858 | -31.06981 | 24413 ft | 340 kts | 278° |
| 2026-05-06 14:50 | 64.87104 | -31.12509 | 24415 ft | 340 kts | 278° |
| 2026-05-06 14:50 | 64.87348 | -31.18031 | 24416 ft | 340 kts | 278° |
| 2026-05-06 14:50 | 64.87591 | -31.23580 | 24418 ft | 340 kts | 278° |
| 2026-05-06 14:50 | 64.87827 | -31.29042 | 24419 ft | 340 kts | 278° |
| 2026-05-06 14:51 | 64.88065 | -31.34565 | 24421 ft | 340 kts | 278° |
| 2026-05-06 14:51 | 64.88300 | -31.40091 | 24423 ft | 340 kts | 278° |
| 2026-05-06 14:51 | 64.88534 | -31.45638 | 24424 ft | 340 kts | 278° |
| 2026-05-06 14:51 | 64.88765 | -31.51164 | 24425 ft | 340 kts | 278° |
| 2026-05-06 14:52 | 64.88994 | -31.56685 | 24427 ft | 340 kts | 278° |
| 2026-05-06 14:52 | 64.89221 | -31.62220 | 24429 ft | 340 kts | 278° |
| 2026-05-06 14:52 | 64.89444 | -31.67691 | 24429 ft | 340 kts | 277° |
| 2026-05-06 14:52 | 64.89668 | -31.73237 | 24431 ft | 340 kts | 277° |
| 2026-05-06 14:53 | 64.89887 | -31.78715 | 24433 ft | 340 kts | 277° |
| 2026-05-06 14:53 | 64.90107 | -31.84276 | 24435 ft | 340 kts | 277° |
| 2026-05-06 14:53 | 64.90323 | -31.89802 | 24436 ft | 340 kts | 277° |
| 2026-05-06 14:53 | 64.90538 | -31.95339 | 24438 ft | 340 kts | 277° |
| 2026-05-06 14:54 | 64.90748 | -32.00793 | 24439 ft | 340 kts | 277° |
| 2026-05-06 14:54 | 64.90959 | -32.06338 | 24441 ft | 340 kts | 277° |
| 2026-05-06 14:54 | 64.91168 | -32.11882 | 24442 ft | 340 kts | 277° |
| 2026-05-06 14:54 | 64.91374 | -32.17403 | 24437 ft | 339 kts | 277° |
| 2026-05-06 14:55 | 64.91579 | -32.22934 | 24436 ft | 339 kts | 277° |
| 2026-05-06 14:55 | 64.91777 | -32.28381 | 24436 ft | 339 kts | 278° |
| 2026-05-06 14:55 | 64.91977 | -32.33902 | 24437 ft | 338 kts | 278° |
| 2026-05-06 14:55 | 64.92175 | -32.39429 | 24445 ft | 338 kts | 278° |
| 2026-05-06 14:56 | 64.92368 | -32.44883 | 24449 ft | 338 kts | 278° |
| 2026-05-06 14:56 | 64.92561 | -32.50380 | 24451 ft | 338 kts | 278° |
| 2026-05-06 14:56 | 64.92752 | -32.55877 | 24453 ft | 338 kts | 278° |
| 2026-05-06 14:56 | 64.92942 | -32.61407 | 24454 ft | 338 kts | 278° |
| 2026-05-06 14:57 | 64.93129 | -32.66927 | 24454 ft | 338 kts | 277° |
| 2026-05-06 14:57 | 64.93312 | -32.72380 | 24456 ft | 338 kts | 277° |
| 2026-05-06 14:57 | 64.93494 | -32.77872 | 24458 ft | 337 kts | 277° |
| 2026-05-06 14:57 | 64.93675 | -32.83359 | 24458 ft | 337 kts | 277° |
| 2026-05-06 14:58 | 64.93854 | -32.88863 | 24460 ft | 337 kts | 277° |
| 2026-05-06 14:58 | 64.94029 | -32.94324 | 24461 ft | 337 kts | 277° |
| 2026-05-06 14:58 | 64.94203 | -32.99825 | 24462 ft | 337 kts | 277° |
| 2026-05-06 14:58 | 64.94376 | -33.05322 | 24464 ft | 337 kts | 277° |
| 2026-05-06 14:59 | 64.94546 | -33.10839 | 24465 ft | 336 kts | 277° |
| 2026-05-06 14:59 | 64.94714 | -33.16288 | 24467 ft | 336 kts | 277° |
| 2026-05-06 14:59 | 64.94878 | -33.21750 | 24468 ft | 336 kts | 278° |
| 2026-05-06 14:59 | 64.95042 | -33.27211 | 24470 ft | 336 kts | 278° |
| 2026-05-06 15:00 | 64.95204 | -33.32736 | 24471 ft | 336 kts | 278° |
| 2026-05-06 15:00 | 64.95364 | -33.38219 | 24472 ft | 336 kts | 278° |
| 2026-05-06 15:00 | 64.95521 | -33.43691 | 24473 ft | 335 kts | 278° |
| 2026-05-06 15:00 | 64.95676 | -33.49155 | 24475 ft | 335 kts | 278° |
| 2026-05-06 15:01 | 64.95830 | -33.54630 | 24476 ft | 335 kts | 278° |
| 2026-05-06 15:01 | 64.95981 | -33.60092 | 24478 ft | 335 kts | 278° |
| 2026-05-06 15:01 | 64.96130 | -33.65573 | 24479 ft | 335 kts | 277° |
| 2026-05-06 15:01 | 64.96275 | -33.70981 | 24481 ft | 334 kts | 277° |
| 2026-05-06 15:02 | 64.96422 | -33.76489 | 24483 ft | 334 kts | 277° |
| 2026-05-06 15:02 | 64.96564 | -33.81946 | 24484 ft | 334 kts | 277° |
| 2026-05-06 15:02 | 64.96705 | -33.87389 | 24485 ft | 334 kts | 277° |
| 2026-05-06 15:02 | 64.96844 | -33.92834 | 24487 ft | 334 kts | 277° |
| 2026-05-06 15:03 | 64.96981 | -33.98313 | 24489 ft | 334 kts | 277° |
| 2026-05-06 15:03 | 64.97115 | -34.03750 | 24490 ft | 334 kts | 277° |
| 2026-05-06 15:03 | 64.97247 | -34.09148 | 24491 ft | 334 kts | 277° |
| 2026-05-06 15:03 | 64.97377 | -34.14597 | 24483 ft | 334 kts | 277° |
| 2026-05-06 15:04 | 64.97508 | -34.20110 | 24480 ft | 333 kts | 278° |
| 2026-05-06 15:04 | 64.97632 | -34.25477 | 24481 ft | 332 kts | 278° |
| 2026-05-06 15:04 | 64.97755 | -34.30915 | 24482 ft | 331 kts | 278° |
| 2026-05-06 15:04 | 64.97877 | -34.36336 | 24494 ft | 331 kts | 278° |
| 2026-05-06 15:05 | 64.97997 | -34.41716 | 24500 ft | 331 kts | 278° |
| 2026-05-06 15:05 | 64.98115 | -34.47102 | 24503 ft | 331 kts | 278° |
| 2026-05-06 15:05 | 64.98231 | -34.52544 | 24504 ft | 331 kts | 278° |
| 2026-05-06 15:05 | 64.98345 | -34.57947 | 24504 ft | 331 kts | 278° |
| 2026-05-06 15:06 | 64.98457 | -34.63322 | 24504 ft | 331 kts | 278° |
| 2026-05-06 15:06 | 64.98567 | -34.68763 | 24505 ft | 331 kts | 278° |
| 2026-05-06 15:06 | 64.98676 | -34.74181 | 24506 ft | 331 kts | 278° |
| 2026-05-06 15:06 | 64.98781 | -34.79561 | 24507 ft | 331 kts | 278° |
| 2026-05-06 15:07 | 64.98885 | -34.84992 | 24508 ft | 330 kts | 278° |
| 2026-05-06 15:07 | 64.98988 | -34.90417 | 24509 ft | 330 kts | 278° |
| 2026-05-06 15:07 | 64.99087 | -34.95764 | 24509 ft | 330 kts | 278° |
| 2026-05-06 15:07 | 64.99185 | -35.01209 | 24510 ft | 330 kts | 278° |
| 2026-05-06 15:08 | 64.99281 | -35.06576 | 24511 ft | 330 kts | 278° |
| 2026-05-06 15:08 | 64.99375 | -35.12020 | 24512 ft | 329 kts | 278° |
| 2026-05-06 15:08 | 64.99467 | -35.17379 | 24513 ft | 329 kts | 278° |
| 2026-05-06 15:08 | 64.99556 | -35.22749 | 24514 ft | 329 kts | 278° |
| 2026-05-06 15:09 | 64.99644 | -35.28128 | 24515 ft | 329 kts | 278° |
| 2026-05-06 15:09 | 64.99730 | -35.33528 | 24516 ft | 329 kts | 278° |
| 2026-05-06 15:09 | 64.99814 | -35.38902 | 24517 ft | 328 kts | 278° |
| 2026-05-06 15:09 | 64.99896 | -35.44268 | 24518 ft | 328 kts | 278° |
| 2026-05-06 15:10 | 64.99976 | -35.49675 | 24519 ft | 328 kts | 278° |
| 2026-05-06 15:10 | 65.00054 | -35.55007 | 24520 ft | 328 kts | 278° |
| 2026-05-06 15:10 | 65.00131 | -35.60386 | 24520 ft | 328 kts | 278° |
| 2026-05-06 15:10 | 65.00204 | -35.65716 | 24525 ft | 328 kts | 277° |
| 2026-05-06 15:11 | 65.00277 | -35.71117 | 24527 ft | 328 kts | 277° |
| 2026-05-06 15:11 | 65.00347 | -35.76454 | 24529 ft | 328 kts | 277° |
| 2026-05-06 15:11 | 65.00417 | -35.81873 | 24530 ft | 329 kts | 277° |
| 2026-05-06 15:11 | 65.00483 | -35.87212 | 24527 ft | 330 kts | 277° |
| 2026-05-06 15:12 | 65.00566 | -35.92629 | 24526 ft | 329 kts | 278° |
| 2026-05-06 15:12 | 65.00678 | -35.98043 | 24527 ft | 329 kts | 278° |
| 2026-05-06 15:12 | 65.00790 | -36.03457 | 24527 ft | 330 kts | 278° |
| 2026-05-06 15:12 | 65.00899 | -36.08804 | 24519 ft | 330 kts | 278° |
| 2026-05-06 15:13 | 65.01005 | -36.14199 | 24516 ft | 329 kts | 278° |
| 2026-05-06 15:13 | 65.01109 | -36.19629 | 24515 ft | 329 kts | 278° |
| 2026-05-06 15:13 | 65.01208 | -36.24963 | 24515 ft | 328 kts | 278° |
| 2026-05-06 15:13 | 65.01306 | -36.30359 | 24526 ft | 328 kts | 278° |
| 2026-05-06 15:14 | 65.01402 | -36.35700 | 24530 ft | 328 kts | 278° |
| 2026-05-06 15:14 | 65.01497 | -36.41133 | 24532 ft | 328 kts | 278° |
| 2026-05-06 15:14 | 65.01588 | -36.46452 | 24533 ft | 329 kts | 278° |
| 2026-05-06 15:14 | 65.01678 | -36.51881 | 24532 ft | 329 kts | 278° |
| 2026-05-06 15:15 | 65.01765 | -36.57218 | 24531 ft | 329 kts | 278° |
| 2026-05-06 15:15 | 65.01852 | -36.62656 | 24532 ft | 329 kts | 278° |
| 2026-05-06 15:15 | 65.01936 | -36.67985 | 24531 ft | 329 kts | 278° |
| 2026-05-06 15:15 | 65.02017 | -36.73384 | 24531 ft | 329 kts | 278° |
| 2026-05-06 15:16 | 65.02098 | -36.78805 | 24531 ft | 329 kts | 278° |
| 2026-05-06 15:16 | 65.02176 | -36.84151 | 24531 ft | 329 kts | 278° |
| 2026-05-06 15:16 | 65.02251 | -36.89548 | 24532 ft | 328 kts | 278° |
| 2026-05-06 15:16 | 65.02325 | -36.94912 | 24531 ft | 328 kts | 278° |
| 2026-05-06 15:17 | 65.02398 | -37.00330 | 24531 ft | 328 kts | 278° |
| 2026-05-06 15:17 | 65.02467 | -37.05689 | 24532 ft | 328 kts | 278° |
| 2026-05-06 15:17 | 65.02536 | -37.11091 | 24532 ft | 328 kts | 278° |
| 2026-05-06 15:17 | 65.02602 | -37.16437 | 24532 ft | 328 kts | 278° |
| 2026-05-06 15:18 | 65.02666 | -37.21841 | 24532 ft | 328 kts | 278° |
| 2026-05-06 15:18 | 65.02728 | -37.27167 | 24532 ft | 328 kts | 278° |
| 2026-05-06 15:18 | 65.02788 | -37.32540 | 24532 ft | 328 kts | 278° |
| 2026-05-06 15:18 | 65.02846 | -37.37882 | 24532 ft | 327 kts | 278° |
| 2026-05-06 15:19 | 65.02903 | -37.43270 | 24532 ft | 327 kts | 278° |
| 2026-05-06 15:19 | 65.02958 | -37.48681 | 24532 ft | 327 kts | 278° |
| 2026-05-06 15:19 | 65.03010 | -37.54002 | 24532 ft | 327 kts | 278° |
| 2026-05-06 15:19 | 65.03061 | -37.59406 | 24533 ft | 327 kts | 278° |
| 2026-05-06 15:20 | 65.03109 | -37.64711 | 24534 ft | 327 kts | 278° |
| 2026-05-06 15:20 | 65.03155 | -37.70055 | 24535 ft | 327 kts | 278° |
| 2026-05-06 15:20 | 65.03200 | -37.75442 | 24535 ft | 327 kts | 278° |
| 2026-05-06 15:20 | 65.03244 | -37.80839 | 24537 ft | 327 kts | 278° |
| 2026-05-06 15:21 | 65.03284 | -37.86146 | 24537 ft | 327 kts | 278° |
| 2026-05-06 15:21 | 65.03323 | -37.91554 | 24537 ft | 327 kts | 278° |
| 2026-05-06 15:21 | 65.03360 | -37.96847 | 24537 ft | 327 kts | 278° |
| 2026-05-06 15:21 | 65.03396 | -38.02262 | 24537 ft | 327 kts | 278° |
| 2026-05-06 15:22 | 65.03429 | -38.07588 | 24537 ft | 327 kts | 278° |
| 2026-05-06 15:22 | 65.03461 | -38.12974 | 24537 ft | 327 kts | 278° |
| 2026-05-06 15:22 | 65.03490 | -38.18349 | 24536 ft | 327 kts | 278° |
| 2026-05-06 15:22 | 65.03517 | -38.23649 | 24529 ft | 327 kts | 278° |
| 2026-05-06 15:23 | 65.03542 | -38.29032 | 24525 ft | 326 kts | 278° |
| 2026-05-06 15:23 | 65.03566 | -38.34398 | 24524 ft | 326 kts | 278° |
| 2026-05-06 15:23 | 65.03587 | -38.39722 | 24523 ft | 325 kts | 278° |
| 2026-05-06 15:23 | 65.03607 | -38.45073 | 24531 ft | 325 kts | 278° |
| 2026-05-06 15:24 | 65.03625 | -38.50335 | 24534 ft | 325 kts | 278° |
| 2026-05-06 15:24 | 65.03642 | -38.55722 | 24535 ft | 325 kts | 278° |
| 2026-05-06 15:24 | 65.03655 | -38.61061 | 24535 ft | 325 kts | 278° |
| 2026-05-06 15:24 | 65.03667 | -38.66382 | 24533 ft | 325 kts | 278° |
| 2026-05-06 15:25 | 65.03678 | -38.71668 | 24532 ft | 325 kts | 278° |
| 2026-05-06 15:25 | 65.03687 | -38.77041 | 24532 ft | 325 kts | 278° |
| 2026-05-06 15:25 | 65.03693 | -38.82350 | 24531 ft | 325 kts | 278° |
| 2026-05-06 15:25 | 65.03698 | -38.87661 | 24530 ft | 325 kts | 278° |
| 2026-05-06 15:26 | 65.03700 | -38.93030 | 24529 ft | 325 kts | 278° |
| 2026-05-06 15:26 | 65.03701 | -38.98379 | 24528 ft | 325 kts | 278° |
| 2026-05-06 15:26 | 65.03700 | -39.03653 | 24528 ft | 325 kts | 278° |
| 2026-05-06 15:26 | 65.03696 | -39.09016 | 24527 ft | 325 kts | 278° |
| 2026-05-06 15:27 | 65.03692 | -39.14382 | 24527 ft | 325 kts | 278° |
| 2026-05-06 15:27 | 65.03685 | -39.19682 | 24526 ft | 325 kts | 278° |
| 2026-05-06 15:27 | 65.03676 | -39.25046 | 24525 ft | 325 kts | 278° |
| 2026-05-06 15:27 | 65.03665 | -39.30344 | 24525 ft | 325 kts | 278° |
| 2026-05-06 15:28 | 65.03653 | -39.35697 | 24524 ft | 324 kts | 278° |
| 2026-05-06 15:28 | 65.03638 | -39.41009 | 24523 ft | 324 kts | 278° |
| 2026-05-06 15:28 | 65.03622 | -39.46325 | 24523 ft | 324 kts | 278° |
| 2026-05-06 15:28 | 65.03604 | -39.51601 | 24522 ft | 324 kts | 278° |
| 2026-05-06 15:29 | 65.03584 | -39.56946 | 24521 ft | 324 kts | 278° |
| 2026-05-06 15:29 | 65.03562 | -39.62228 | 24520 ft | 324 kts | 278° |
| 2026-05-06 15:29 | 65.03539 | -39.67563 | 24519 ft | 324 kts | 277° |
| 2026-05-06 15:29 | 65.03513 | -39.72907 | 24519 ft | 324 kts | 277° |
| 2026-05-06 15:30 | 65.03485 | -39.78189 | 24517 ft | 324 kts | 277° |
| 2026-05-06 15:30 | 65.03456 | -39.83494 | 24514 ft | 324 kts | 277° |
| 2026-05-06 15:30 | 65.03425 | -39.88844 | 24510 ft | 324 kts | 277° |
| 2026-05-06 15:30 | 65.03391 | -39.94165 | 24505 ft | 324 kts | 277° |
| 2026-05-06 15:31 | 65.03356 | -39.99523 | 24500 ft | 325 kts | 277° |
| 2026-05-06 15:31 | 65.03364 | -40.04827 | 24496 ft | 322 kts | 280° |
| 2026-05-06 15:31 | 65.03439 | -40.10052 | 24493 ft | 322 kts | 280° |
| 2026-05-06 15:32 | 65.03592 | -40.20634 | 24477 ft | 322 kts | 280° |
| 2026-05-06 15:32 | 65.03661 | -40.25858 | 24473 ft | 321 kts | 280° |
| 2026-05-06 15:32 | 65.03727 | -40.31130 | 24469 ft | 321 kts | 280° |
| 2026-05-06 15:32 | 65.03790 | -40.36434 | 24472 ft | 321 kts | 280° |
| 2026-05-06 15:33 | 65.03850 | -40.41662 | 24471 ft | 321 kts | 280° |
| 2026-05-06 15:33 | 65.03908 | -40.46932 | 24468 ft | 321 kts | 280° |
| 2026-05-06 15:33 | 65.03963 | -40.52184 | 24464 ft | 321 kts | 280° |
| 2026-05-06 15:33 | 65.04016 | -40.57487 | 24460 ft | 321 kts | 280° |
| 2026-05-06 15:34 | 65.04067 | -40.62716 | 24458 ft | 321 kts | 280° |
| 2026-05-06 15:34 | 65.04116 | -40.68018 | 24455 ft | 321 kts | 279° |
| 2026-05-06 15:34 | 65.04163 | -40.73280 | 24453 ft | 321 kts | 279° |
| 2026-05-06 15:34 | 65.04208 | -40.78576 | 24450 ft | 321 kts | 279° |
| 2026-05-06 15:35 | 65.04251 | -40.83809 | 24445 ft | 322 kts | 279° |
| 2026-05-06 15:35 | 65.04292 | -40.89138 | 24439 ft | 322 kts | 279° |
| 2026-05-06 15:35 | 65.04331 | -40.94355 | 24433 ft | 322 kts | 279° |
| 2026-05-06 15:35 | 65.04369 | -40.99641 | 24427 ft | 322 kts | 279° |
| 2026-05-06 15:36 | 65.04404 | -41.04926 | 24409 ft | 322 kts | 279° |
| 2026-05-06 15:36 | 65.04438 | -41.10218 | 24379 ft | 323 kts | 279° |
| 2026-05-06 15:36 | 65.04470 | -41.15526 | 24366 ft | 324 kts | 279° |
| 2026-05-06 15:36 | 65.04501 | -41.20871 | 24316 ft | 328 kts | 279° |
| 2026-05-06 15:37 | 65.04532 | -41.26285 | 24221 ft | 333 kts | 279° |
| 2026-05-06 15:37 | 65.04561 | -41.31844 | 24115 ft | 336 kts | 278° |
| 2026-05-06 15:37 | 65.04586 | -41.37350 | 24024 ft | 338 kts | 278° |
| 2026-05-06 15:37 | 65.04609 | -41.42899 | 23890 ft | 340 kts | 278° |
| 2026-05-06 15:38 | 65.04627 | -41.48444 | 23810 ft | 338 kts | 278° |
| 2026-05-06 15:38 | 65.04644 | -41.54008 | 23763 ft | 334 kts | 278° |
| 2026-05-06 15:38 | 65.04658 | -41.59466 | 23731 ft | 331 kts | 278° |
| 2026-05-06 15:38 | 65.04672 | -41.64907 | 23720 ft | 329 kts | 278° |
| 2026-05-06 15:39 | 65.04683 | -41.70299 | 23700 ft | 328 kts | 278° |
| 2026-05-06 15:39 | 65.04694 | -41.75611 | 23678 ft | 327 kts | 278° |
| 2026-05-06 15:39 | 65.04703 | -41.80957 | 23656 ft | 326 kts | 278° |
| 2026-05-06 15:39 | 65.04710 | -41.86327 | 23642 ft | 326 kts | 278° |
| 2026-05-06 15:40 | 65.04715 | -41.91699 | 23623 ft | 326 kts | 278° |
| 2026-05-06 15:40 | 65.04719 | -41.97083 | 23603 ft | 326 kts | 278° |
| 2026-05-06 15:40 | 65.04720 | -42.02361 | 23583 ft | 326 kts | 278° |
| 2026-05-06 15:40 | 65.04719 | -42.07747 | 23558 ft | 326 kts | 277° |
| 2026-05-06 15:41 | 65.04717 | -42.13109 | 23540 ft | 325 kts | 277° |
| 2026-05-06 15:41 | 65.04712 | -42.18373 | 23526 ft | 325 kts | 277° |
| 2026-05-06 15:41 | 65.04705 | -42.23727 | 23513 ft | 324 kts | 277° |
| 2026-05-06 15:41 | 65.04697 | -42.29063 | 23510 ft | 324 kts | 277° |
| 2026-05-06 15:42 | 65.04686 | -42.34380 | 23504 ft | 324 kts | 277° |
| 2026-05-06 15:42 | 65.04674 | -42.39730 | 23496 ft | 324 kts | 277° |
| 2026-05-06 15:42 | 65.04660 | -42.45021 | 23487 ft | 325 kts | 277° |
| 2026-05-06 15:42 | 65.04644 | -42.50329 | 23477 ft | 325 kts | 277° |
| 2026-05-06 15:43 | 65.04627 | -42.55706 | 23469 ft | 325 kts | 277° |
| 2026-05-06 15:43 | 65.04607 | -42.61051 | 23460 ft | 325 kts | 277° |
| 2026-05-06 15:43 | 65.04584 | -42.66363 | 23452 ft | 325 kts | 276° |
| 2026-05-06 15:43 | 65.04561 | -42.71696 | 23444 ft | 326 kts | 276° |
| 2026-05-06 15:44 | 65.04535 | -42.77035 | 23437 ft | 326 kts | 276° |
| 2026-05-06 15:44 | 65.04507 | -42.82405 | 23430 ft | 326 kts | 276° |
| 2026-05-06 15:44 | 65.04478 | -42.87784 | 23423 ft | 326 kts | 276° |
| 2026-05-06 15:44 | 65.04447 | -42.93064 | 23416 ft | 326 kts | 276° |
| 2026-05-06 15:45 | 65.04413 | -42.98470 | 23410 ft | 326 kts | 276° |
| 2026-05-06 15:45 | 65.04378 | -43.03820 | 23404 ft | 326 kts | 276° |
| 2026-05-06 15:45 | 65.04341 | -43.09139 | 23398 ft | 326 kts | 276° |
| 2026-05-06 15:45 | 65.04301 | -43.14516 | 23393 ft | 326 kts | 276° |
| 2026-05-06 15:46 | 65.04260 | -43.19884 | 23388 ft | 326 kts | 276° |
| 2026-05-06 15:46 | 65.04218 | -43.25217 | 23384 ft | 326 kts | 276° |
| 2026-05-06 15:46 | 65.04173 | -43.30553 | 23380 ft | 327 kts | 276° |
| 2026-05-06 15:46 | 65.04126 | -43.35920 | 23376 ft | 327 kts | 276° |
| 2026-05-06 15:47 | 65.04077 | -43.41260 | 23373 ft | 327 kts | 276° |
| 2026-05-06 15:47 | 65.04026 | -43.46699 | 23369 ft | 327 kts | 276° |
| 2026-05-06 15:47 | 65.03974 | -43.52019 | 23366 ft | 327 kts | 276° |
| 2026-05-06 15:47 | 65.03919 | -43.57384 | 23364 ft | 327 kts | 276° |
| 2026-05-06 15:48 | 65.03863 | -43.62755 | 23362 ft | 327 kts | 276° |
| 2026-05-06 15:48 | 65.03804 | -43.68159 | 23359 ft | 328 kts | 275° |
| 2026-05-06 15:48 | 65.03744 | -43.73524 | 23358 ft | 328 kts | 275° |
| 2026-05-06 15:48 | 65.03681 | -43.78895 | 23356 ft | 328 kts | 275° |
| 2026-05-06 15:49 | 65.03616 | -43.84298 | 23354 ft | 328 kts | 275° |
| 2026-05-06 15:49 | 65.03550 | -43.89679 | 23352 ft | 328 kts | 275° |
| 2026-05-06 15:49 | 65.03482 | -43.95040 | 23350 ft | 329 kts | 275° |
| 2026-05-06 15:49 | 65.03412 | -44.00430 | 23348 ft | 329 kts | 275° |
| 2026-05-06 15:50 | 65.03339 | -44.05806 | 23346 ft | 329 kts | 275° |
| 2026-05-06 15:50 | 65.03265 | -44.11255 | 23344 ft | 329 kts | 275° |
| 2026-05-06 15:50 | 65.03189 | -44.16634 | 23342 ft | 329 kts | 275° |
| 2026-05-06 15:50 | 65.03110 | -44.22020 | 23334 ft | 329 kts | 275° |
| 2026-05-06 15:51 | 65.03030 | -44.27401 | 23332 ft | 329 kts | 275° |
| 2026-05-06 15:51 | 65.02948 | -44.32809 | 23333 ft | 329 kts | 274° |
| 2026-05-06 15:51 | 65.02864 | -44.38197 | 23335 ft | 329 kts | 274° |
| 2026-05-06 15:51 | 65.02779 | -44.43557 | 23344 ft | 329 kts | 274° |
| 2026-05-06 15:52 | 65.02691 | -44.48961 | 23346 ft | 329 kts | 274° |
| 2026-05-06 15:52 | 65.02601 | -44.54370 | 23345 ft | 330 kts | 274° |
| 2026-05-06 15:52 | 65.02509 | -44.59772 | 23344 ft | 330 kts | 274° |
| 2026-05-06 15:52 | 65.02415 | -44.65186 | 23342 ft | 331 kts | 273° |
| 2026-05-06 15:53 | 65.02318 | -44.70667 | 23341 ft | 331 kts | 273° |
| 2026-05-06 15:53 | 65.02220 | -44.76077 | 23340 ft | 332 kts | 273° |
| 2026-05-06 15:53 | 65.02119 | -44.81503 | 23340 ft | 332 kts | 273° |
| 2026-05-06 15:53 | 65.02017 | -44.86934 | 23340 ft | 332 kts | 273° |
| 2026-05-06 15:54 | 65.01913 | -44.92374 | 23340 ft | 332 kts | 273° |
| 2026-05-06 15:54 | 65.01807 | -44.97782 | 23340 ft | 333 kts | 273° |
| 2026-05-06 15:54 | 65.01698 | -45.03269 | 23341 ft | 333 kts | 273° |
| 2026-05-06 15:54 | 65.01587 | -45.08718 | 23342 ft | 333 kts | 273° |
| 2026-05-06 15:55 | 65.01474 | -45.14180 | 23343 ft | 333 kts | 273° |
| 2026-05-06 15:55 | 65.01360 | -45.19632 | 23344 ft | 333 kts | 273° |
| 2026-05-06 15:55 | 65.01243 | -45.25074 | 23344 ft | 333 kts | 272° |
| 2026-05-06 15:55 | 65.01124 | -45.30544 | 23346 ft | 334 kts | 272° |
| 2026-05-06 15:56 | 65.01003 | -45.35990 | 23348 ft | 334 kts | 272° |
| 2026-05-06 15:56 | 65.00880 | -45.41450 | 23350 ft | 334 kts | 272° |
| 2026-05-06 15:56 | 65.00754 | -45.46969 | 23352 ft | 334 kts | 272° |
| 2026-05-06 15:56 | 65.00629 | -45.52383 | 23352 ft | 334 kts | 272° |
| 2026-05-06 15:57 | 65.00499 | -45.57865 | 23347 ft | 335 kts | 272° |
| 2026-05-06 15:57 | 65.00369 | -45.63329 | 23340 ft | 335 kts | 272° |
| 2026-05-06 15:57 | 65.00233 | -45.68886 | 23332 ft | 336 kts | 271° |
| 2026-05-06 15:57 | 65.00098 | -45.74371 | 23326 ft | 336 kts | 271° |
| 2026-05-06 15:58 | 64.99960 | -45.79852 | 23325 ft | 336 kts | 271° |
| 2026-05-06 15:58 | 64.99820 | -45.85354 | 23326 ft | 336 kts | 271° |
| 2026-05-06 15:58 | 64.99679 | -45.90827 | 23327 ft | 336 kts | 271° |
| 2026-05-06 15:58 | 64.99532 | -45.96401 | 23330 ft | 336 kts | 271° |
| 2026-05-06 15:59 | 64.99387 | -46.01888 | 23331 ft | 337 kts | 271° |
| 2026-05-06 15:59 | 64.99239 | -46.07383 | 23333 ft | 337 kts | 271° |
| 2026-05-06 15:59 | 64.99088 | -46.12893 | 23334 ft | 337 kts | 271° |
| 2026-05-06 15:59 | 64.98935 | -46.18401 | 23331 ft | 337 kts | 271° |
| 2026-05-06 16:00 | 64.98781 | -46.23901 | 23331 ft | 337 kts | 271° |
| 2026-05-06 16:00 | 64.98624 | -46.29406 | 23332 ft | 337 kts | 271° |
| 2026-05-06 16:00 | 64.98467 | -46.34879 | 23334 ft | 337 kts | 270° |
| 2026-05-06 16:00 | 64.98306 | -46.40395 | 23340 ft | 338 kts | 270° |
| 2026-05-06 16:01 | 64.98144 | -46.45916 | 23343 ft | 338 kts | 270° |
| 2026-05-06 16:01 | 64.97978 | -46.51444 | 23344 ft | 338 kts | 270° |
| 2026-05-06 16:01 | 64.97811 | -46.56959 | 23345 ft | 339 kts | 270° |
| 2026-05-06 16:01 | 64.97641 | -46.62513 | 23345 ft | 339 kts | 270° |
| 2026-05-06 16:02 | 64.97469 | -46.68083 | 23345 ft | 339 kts | 269° |
| 2026-05-06 16:02 | 64.97295 | -46.73622 | 23346 ft | 340 kts | 269° |
| 2026-05-06 16:02 | 64.97118 | -46.79175 | 23348 ft | 340 kts | 269° |
| 2026-05-06 16:02 | 64.96939 | -46.84726 | 23349 ft | 340 kts | 269° |
| 2026-05-06 16:03 | 64.96758 | -46.90276 | 23350 ft | 340 kts | 269° |
| 2026-05-06 16:03 | 64.96578 | -46.95758 | 23352 ft | 340 kts | 269° |
| 2026-05-06 16:03 | 64.96394 | -47.01303 | 23354 ft | 340 kts | 269° |
| 2026-05-06 16:03 | 64.96206 | -47.06864 | 23356 ft | 340 kts | 269° |
| 2026-05-06 16:04 | 64.96016 | -47.12443 | 23358 ft | 340 kts | 269° |
| 2026-05-06 16:04 | 64.95825 | -47.18000 | 23360 ft | 341 kts | 269° |
| 2026-05-06 16:04 | 64.95632 | -47.23549 | 23362 ft | 341 kts | 269° |
| 2026-05-06 16:04 | 64.95436 | -47.29124 | 23364 ft | 341 kts | 269° |
| 2026-05-06 16:05 | 64.95238 | -47.34701 | 23366 ft | 341 kts | 269° |
| 2026-05-06 16:05 | 64.95038 | -47.40261 | 23369 ft | 341 kts | 269° |
| 2026-05-06 16:05 | 64.94837 | -47.45797 | 23372 ft | 341 kts | 269° |
| 2026-05-06 16:05 | 64.94634 | -47.51327 | 23374 ft | 341 kts | 269° |
| 2026-05-06 16:06 | 64.94428 | -47.56897 | 23377 ft | 342 kts | 268° |
| 2026-05-06 16:06 | 64.94219 | -47.62466 | 23380 ft | 342 kts | 268° |
| 2026-05-06 16:06 | 64.94006 | -47.68099 | 23383 ft | 342 kts | 267° |
| 2026-05-06 16:06 | 64.93797 | -47.73598 | 23388 ft | 342 kts | 267° |
| 2026-05-06 16:07 | 64.93580 | -47.79201 | 23394 ft | 342 kts | 267° |
| 2026-05-06 16:07 | 64.93366 | -47.84715 | 23401 ft | 342 kts | 267° |
| 2026-05-06 16:07 | 64.93146 | -47.90311 | 23409 ft | 342 kts | 267° |
| 2026-05-06 16:07 | 64.92924 | -47.95881 | 23417 ft | 342 kts | 267° |
| 2026-05-06 16:08 | 64.92699 | -48.01456 | 23426 ft | 342 kts | 267° |
| 2026-05-06 16:08 | 64.92471 | -48.06957 | 23434 ft | 342 kts | 267° |
| 2026-05-06 16:08 | 64.92239 | -48.12537 | 23442 ft | 342 kts | 267° |
| 2026-05-06 16:08 | 64.92006 | -48.18113 | 23449 ft | 342 kts | 266° |
| 2026-05-06 16:09 | 64.91772 | -48.23689 | 23457 ft | 342 kts | 266° |
| 2026-05-06 16:09 | 64.91537 | -48.29223 | 23466 ft | 342 kts | 266° |
| 2026-05-06 16:09 | 64.91303 | -48.34734 | 23476 ft | 342 kts | 266° |
| 2026-05-06 16:09 | 64.91065 | -48.40297 | 23487 ft | 342 kts | 266° |
| 2026-05-06 16:10 | 64.90824 | -48.45885 | 23492 ft | 342 kts | 266° |
| 2026-05-06 16:10 | 64.90583 | -48.51436 | 23495 ft | 343 kts | 266° |
| 2026-05-06 16:10 | 64.90337 | -48.57060 | 23496 ft | 343 kts | 266° |
| 2026-05-06 16:10 | 64.90093 | -48.62587 | 23498 ft | 344 kts | 266° |
| 2026-05-06 16:11 | 64.89840 | -48.68251 | 23504 ft | 345 kts | 265° |
| 2026-05-06 16:11 | 64.89589 | -48.73848 | 23512 ft | 345 kts | 265° |
| 2026-05-06 16:11 | 64.89336 | -48.79422 | 23520 ft | 345 kts | 265° |
| 2026-05-06 16:11 | 64.89079 | -48.85045 | 23529 ft | 345 kts | 265° |
| 2026-05-06 16:12 | 64.88824 | -48.90595 | 23538 ft | 345 kts | 265° |
| 2026-05-06 16:12 | 64.88563 | -48.96209 | 23547 ft | 346 kts | 265° |
| 2026-05-06 16:12 | 64.88300 | -49.01825 | 23557 ft | 346 kts | 265° |
| 2026-05-06 16:12 | 64.88035 | -49.07438 | 23569 ft | 346 kts | 265° |
| 2026-05-06 16:13 | 64.87768 | -49.13057 | 23583 ft | 345 kts | 265° |
| 2026-05-06 16:13 | 64.87502 | -49.18596 | 23598 ft | 345 kts | 264° |
| 2026-05-06 16:13 | 64.87228 | -49.24278 | 23613 ft | 345 kts | 264° |
| 2026-05-06 16:13 | 64.86958 | -49.29815 | 23630 ft | 345 kts | 264° |
| 2026-05-06 16:14 | 64.86682 | -49.35415 | 23647 ft | 345 kts | 264° |
| 2026-05-06 16:14 | 64.86404 | -49.41046 | 23665 ft | 345 kts | 264° |
| 2026-05-06 16:14 | 64.86124 | -49.46646 | 23683 ft | 345 kts | 264° |
| 2026-05-06 16:14 | 64.85843 | -49.52245 | 23691 ft | 345 kts | 264° |
| 2026-05-06 16:15 | 64.85561 | -49.57818 | 23716 ft | 343 kts | 264° |
| 2026-05-06 16:15 | 64.85275 | -49.63394 | 23762 ft | 341 kts | 264° |
| 2026-05-06 16:15 | 64.84988 | -49.68993 | 23815 ft | 339 kts | 263° |
| 2026-05-06 16:15 | 64.84705 | -49.74431 | 23874 ft | 338 kts | 263° |
| 2026-05-06 16:16 | 64.84418 | -49.79941 | 23927 ft | 337 kts | 263° |
| 2026-05-06 16:16 | 64.84132 | -49.85382 | 23973 ft | 337 kts | 263° |
| 2026-05-06 16:16 | 64.83846 | -49.90771 | 24014 ft | 337 kts | 263° |
| 2026-05-06 16:16 | 64.83556 | -49.96235 | 24052 ft | 337 kts | 263° |
| 2026-05-06 16:17 | 64.83263 | -50.01721 | 24079 ft | 338 kts | 263° |
| 2026-05-06 16:17 | 64.83312 | -50.07173 | 24104 ft | 335 kts | 285° |
| 2026-05-06 16:17 | 64.84374 | -50.11894 | 24171 ft | 329 kts | 314° |
| 2026-05-06 16:17 | 64.86260 | -50.14836 | 24204 ft | 323 kts | 343° |
| 2026-05-06 16:18 | 64.88442 | -50.15538 | 24234 ft | 321 kts | 2° |
| 2026-05-06 16:18 | 64.90663 | -50.15178 | 24211 ft | 323 kts | 12° |
| 2026-05-06 16:18 | 64.92703 | -50.13115 | 24182 ft | 320 kts | 40° |
| 2026-05-06 16:18 | 64.94025 | -50.09016 | 24143 ft | 318 kts | 68° |
| 2026-05-06 16:19 | 64.94479 | -50.03925 | 24124 ft | 319 kts | 84° |
| 2026-05-06 16:19 | 64.94674 | -49.98691 | 24090 ft | 322 kts | 86° |
| 2026-05-06 16:19 | 64.94826 | -49.93404 | 24058 ft | 324 kts | 86° |
| 2026-05-06 16:19 | 64.94953 | -49.88082 | 24015 ft | 327 kts | 87° |
| 2026-05-06 16:20 | 64.95064 | -49.82726 | 23967 ft | 330 kts | 87° |
| 2026-05-06 16:20 | 64.95091 | -49.77336 | 23907 ft | 333 kts | 94° |
| 2026-05-06 16:20 | 64.94469 | -49.72128 | 23843 ft | 336 kts | 115° |
| 2026-05-06 16:20 | 64.92994 | -49.67849 | 23791 ft | 339 kts | 138° |
| 2026-05-06 16:21 | 64.90939 | -49.65326 | 23764 ft | 341 kts | 161° |
| 2026-05-06 16:21 | 64.88593 | -49.64922 | 23759 ft | 342 kts | 185° |
| 2026-05-06 16:21 | 64.86354 | -49.66771 | 23779 ft | 342 kts | 209° |
| 2026-05-06 16:21 | 64.84616 | -49.70558 | 23825 ft | 340 kts | 233° |
| 2026-05-06 16:22 | 64.83672 | -49.75565 | 23877 ft | 337 kts | 257° |
| 2026-05-06 16:22 | 64.83460 | -49.80986 | 23943 ft | 335 kts | 269° |
| 2026-05-06 16:22 | 64.83409 | -49.86433 | 23986 ft | 335 kts | 269° |
| 2026-05-06 16:22 | 64.83365 | -49.91906 | 24029 ft | 335 kts | 269° |
| 2026-05-06 16:23 | 64.83318 | -49.97398 | 24065 ft | 336 kts | 269° |
| 2026-05-06 16:23 | 64.83421 | -50.02808 | 24077 ft | 336 kts | 281° |
| 2026-05-06 16:23 | 64.84278 | -50.07872 | 24132 ft | 332 kts | 304° |
| 2026-05-06 16:23 | 64.85889 | -50.11708 | 24175 ft | 328 kts | 328° |
| 2026-05-06 16:24 | 64.87933 | -50.13737 | 24198 ft | 324 kts | 350° |
| 2026-05-06 16:24 | 64.90166 | -50.13800 | 24199 ft | 322 kts | 12° |
| 2026-05-06 16:24 | 64.92229 | -50.11883 | 24180 ft | 320 kts | 34° |
| 2026-05-06 16:24 | 64.93821 | -50.08320 | 24149 ft | 320 kts | 56° |
| 2026-05-06 16:25 | 64.94743 | -50.03523 | 24113 ft | 320 kts | 77° |
| 2026-05-06 16:25 | 64.94968 | -49.98355 | 24098 ft | 322 kts | 88° |
| 2026-05-06 16:25 | 64.95029 | -49.93071 | 24061 ft | 325 kts | 89° |
| 2026-05-06 16:25 | 64.95084 | -49.87712 | 24011 ft | 328 kts | 88° |
| 2026-05-06 16:26 | 64.95140 | -49.82331 | 23961 ft | 330 kts | 88° |
| 2026-05-06 16:26 | 64.95095 | -49.76865 | 23898 ft | 333 kts | 96° |
| 2026-05-06 16:26 | 64.94362 | -49.71725 | 23836 ft | 336 kts | 118° |
| 2026-05-06 16:26 | 64.92829 | -49.67640 | 23788 ft | 339 kts | 140° |
| 2026-05-06 16:27 | 64.90710 | -49.65273 | 23763 ft | 341 kts | 163° |
| 2026-05-06 16:27 | 64.88358 | -49.65082 | 23760 ft | 342 kts | 187° |
| 2026-05-06 16:27 | 64.86183 | -49.67308 | 23783 ft | 342 kts | 215° |
| 2026-05-06 16:27 | 64.84529 | -49.71178 | 23838 ft | 339 kts | 229° |
| 2026-05-06 16:28 | 64.83164 | -49.75682 | 23874 ft | 338 kts | 242° |
| 2026-05-06 16:28 | 64.82619 | -49.80961 | 23941 ft | 334 kts | 269° |
| 2026-05-06 16:28 | 64.82791 | -49.86360 | 23995 ft | 333 kts | 277° |
| 2026-05-06 16:28 | 64.83096 | -49.91778 | 24036 ft | 334 kts | 279° |
| 2026-05-06 16:29 | 64.83398 | -49.97200 | 24060 ft | 336 kts | 274° |
| 2026-05-06 16:29 | 64.83002 | -50.02571 | 24093 ft | 335 kts | 248° |
| 2026-05-06 16:29 | 64.82025 | -50.07486 | 24135 ft | 335 kts | 243° |
| 2026-05-06 16:29 | 64.81004 | -50.12388 | 24189 ft | 336 kts | 243° |
| 2026-05-06 16:30 | 64.79982 | -50.17303 | 24207 ft | 338 kts | 243° |
| 2026-05-06 16:30 | 64.79291 | -50.20645 | 24207 ft | 335 kts | 243° |
| 2026-05-06 16:30 | 64.77962 | -50.27084 | 24204 ft | 325 kts | 243° |
| 2026-05-06 16:30 | 64.77002 | -50.31752 | 24208 ft | 318 kts | 243° |
| 2026-05-06 16:31 | 64.76044 | -50.36414 | 24073 ft | 318 kts | 243° |
| 2026-05-06 16:31 | 64.75076 | -50.41126 | 23797 ft | 324 kts | 243° |
| 2026-05-06 16:31 | 64.74096 | -50.45901 | 23440 ft | 332 kts | 243° |
| 2026-05-06 16:31 | 64.73090 | -50.50804 | 23036 ft | 338 kts | 243° |
| 2026-05-06 16:32 | 64.72070 | -50.55765 | 22632 ft | 342 kts | 243° |
| 2026-05-06 16:32 | 64.71030 | -50.60816 | 22224 ft | 346 kts | 243° |
| 2026-05-06 16:32 | 64.69989 | -50.65867 | 21811 ft | 348 kts | 243° |
| 2026-05-06 16:32 | 64.68935 | -50.70967 | 21392 ft | 349 kts | 243° |
| 2026-05-06 16:33 | 64.67880 | -50.76065 | 20982 ft | 349 kts | 243° |
| 2026-05-06 16:33 | 64.66838 | -50.81090 | 20574 ft | 349 kts | 243° |
| 2026-05-06 16:33 | 64.65781 | -50.86169 | 20165 ft | 349 kts | 243° |
| 2026-05-06 16:34 | 64.63663 | -50.96321 | 19345 ft | 348 kts | 242° |
| 2026-05-06 16:34 | 64.62602 | -51.01390 | 18935 ft | 347 kts | 242° |
| 2026-05-06 16:34 | 64.61552 | -51.06398 | 18532 ft | 346 kts | 242° |
| 2026-05-06 16:34 | 64.60500 | -51.11399 | 18034 ft | 348 kts | 242° |
| 2026-05-06 16:35 | 64.59431 | -51.16465 | 17536 ft | 349 kts | 242° |
| 2026-05-06 16:35 | 64.58375 | -51.21464 | 17111 ft | 347 kts | 242° |
| 2026-05-06 16:35 | 64.57302 | -51.26527 | 16710 ft | 347 kts | 242° |
| 2026-05-06 16:35 | 64.56248 | -51.31487 | 16252 ft | 344 kts | 242° |
| 2026-05-06 16:36 | 64.55187 | -51.36387 | 15829 ft | 342 kts | 240° |
| 2026-05-06 16:36 | 64.53635 | -51.40506 | 15377 ft | 333 kts | 213° |
| 2026-05-06 16:36 | 64.51564 | -51.42459 | 15045 ft | 322 kts | 190° |
| 2026-05-06 16:36 | 64.49384 | -51.43350 | 14675 ft | 319 kts | 187° |
| 2026-05-06 16:37 | 64.47203 | -51.44136 | 14314 ft | 317 kts | 186° |
| 2026-05-06 16:37 | 64.45023 | -51.44889 | 13951 ft | 315 kts | 186° |
| 2026-05-06 16:37 | 64.42866 | -51.45615 | 13591 ft | 313 kts | 186° |
| 2026-05-06 16:37 | 64.40729 | -51.46326 | 13234 ft | 311 kts | 185° |
| 2026-05-06 16:38 | 64.38597 | -51.47026 | 12875 ft | 308 kts | 185° |
| 2026-05-06 16:38 | 64.36523 | -51.47700 | 12525 ft | 301 kts | 185° |
| 2026-05-06 16:38 | 64.34460 | -51.48371 | 12179 ft | 295 kts | 185° |
| 2026-05-06 16:38 | 64.32465 | -51.49015 | 11845 ft | 290 kts | 185° |
| 2026-05-06 16:39 | 64.30496 | -51.49646 | 11516 ft | 286 kts | 185° |
| 2026-05-06 16:39 | 64.28525 | -51.50272 | 11185 ft | 282 kts | 185° |
| 2026-05-06 16:39 | 64.26621 | -51.50878 | 10864 ft | 278 kts | 185° |
| 2026-05-06 16:39 | 64.24704 | -51.51488 | 10540 ft | 274 kts | 185° |
| 2026-05-06 16:40 | 64.22826 | -51.52083 | 10220 ft | 271 kts | 185° |
| 2026-05-06 16:40 | 64.20977 | -51.52668 | 9903 ft | 269 kts | 185° |
| 2026-05-06 16:40 | 64.19145 | -51.53246 | 9593 ft | 267 kts | 185° |
| 2026-05-06 16:40 | 64.17296 | -51.53828 | 9280 ft | 266 kts | 186° |
| 2026-05-06 16:41 | 64.15495 | -51.54395 | 8976 ft | 264 kts | 186° |
| 2026-05-06 16:41 | 64.13673 | -51.54968 | 8669 ft | 263 kts | 186° |
| 2026-05-06 16:41 | 64.11874 | -51.55533 | 8366 ft | 262 kts | 186° |
| 2026-05-06 16:41 | 64.10088 | -51.56094 | 8067 ft | 260 kts | 186° |
| 2026-05-06 16:42 | 64.08318 | -51.56696 | 7583 ft | 256 kts | 190° |
| 2026-05-06 16:42 | 64.06724 | -51.58438 | 6957 ft | 256 kts | 218° |
| 2026-05-06 16:42 | 64.05630 | -51.61556 | 6308 ft | 257 kts | 240° |
| 2026-05-06 16:42 | 64.04833 | -51.65188 | 5659 ft | 257 kts | 248° |
| 2026-05-06 16:43 | 64.04619 | -51.69140 | 5100 ft | 254 kts | 276° |
| 2026-05-06 16:43 | 64.05219 | -51.72845 | 4519 ft | 250 kts | 304° |
| 2026-05-06 16:43 | 64.06472 | -51.75448 | 3932 ft | 242 kts | 332° |
| 2026-05-06 16:43 | 64.08006 | -51.76174 | 3312 ft | 220 kts | 7° |
| 2026-05-06 16:44 | 64.09421 | -51.75279 | 2624 ft | 210 kts | 21° |
| 2026-05-06 16:44 | 64.10767 | -51.74099 | 1853 ft | 205 kts | 20° |
| 2026-05-06 16:44 | 64.12026 | -51.73096 | 1518 ft | 179 kts | 17° |
| 2026-05-06 16:44 | 64.13124 | -51.72290 | 1343 ft | 151 kts | 17° |
| 2026-05-06 16:45 | 64.14043 | -51.71616 | 1192 ft | 127 kts | 18° |
| 2026-05-06 16:45 | 64.14826 | -51.71038 | 973 ft | 114 kts | 19° |
| 2026-05-06 16:45 | 64.15568 | -51.70516 | 873 ft | 113 kts | 17° |
| 2026-05-06 16:45 | 64.16303 | -51.69938 | 705 ft | 110 kts | 20° |
| 2026-05-06 16:46 | 64.17024 | -51.69402 | 555 ft | 107 kts | 18° |
| 2026-05-06 16:46 | 64.17725 | -51.68910 | 403 ft | 107 kts | 18° |
| 2026-05-06 16:46 | 64.18434 | -51.68370 | 266 ft | 102 kts | 14° |
| 2026-05-06 16:46 | 64.18996 | -51.67990 | 265 ft | 55 kts | 17° |
| 2026-05-06 16:47 | 64.19144 | -51.67868 | 265 ft | 3 kts | 22° |
| 2026-05-06 16:47 | 64.19138 | -51.67908 | 265 ft | 8 kts | 197° |
| 2026-05-06 16:47 | 64.19087 | -51.67839 | 264 ft | 8 kts | 93° |
| 2026-05-06 16:47 | 64.19080 | -51.67668 | 264 ft | 11 kts | 102° |
| 2026-05-06 16:48 | 64.19086 | -51.67513 | 264 ft | 10 kts | 41° |
| 2026-05-06 16:48 | 64.19137 | -51.67467 | 264 ft | 4 kts | 22° |
| 2026-05-06 16:48 | 64.19135 | -51.67448 | 264 ft | 0 kts | 167° |
| 2026-05-06 16:48 | 64.19134 | -51.67448 | 264 ft | 0 kts | 179° |